Time;durP1;ratioP1;P1;durP2;ratioP2;P2;SDS_P1;SDS_P2;PMS_P1;PMS_P2;Temp;Humidity;BMP_temperature;BMP_pressure;BME280_temperature;BME280_humidity;BME280_pressure;Samples;Min_cycle;Max_cycle;Signal;HPM_P1;HPM_P2
2021/12/08 00:02:21;;;;;;;20.30;10.27;;;;;;;-0.12;100.00;97213.09;10350274;28;20145;-63
2021/12/08 00:07:26;;;;;;;18.63;9.85;;;;;;;-0.13;100.00;97200.84;10350791;28;20057;-63
2021/12/08 00:17:49;;;;;;;18.08;10.30;;;;;;;-0.09;100.00;97157.28;10348630;28;20057;-63
2021/12/08 00:22:54;;;;;;;20.20;10.13;;;;;;;-0.09;100.00;97135.25;10347161;28;20056;-63
2021/12/08 00:27:58;;;;;;;18.88;10.55;;;;;;;-0.10;100.00;97115.88;10348921;28;20060;-63
2021/12/08 00:33:01;;;;;;;19.25;10.50;;;;;;;-0.09;100.00;97075.22;10347362;28;20054;-64
2021/12/08 00:38:06;;;;;;;20.63;12.35;;;;;;;-0.13;100.00;97052.59;10347719;28;20528;-64
2021/12/08 00:43:10;;;;;;;20.90;11.40;;;;;;;-0.14;100.00;97037.69;10348626;28;20050;-63
2021/12/08 00:48:13;;;;;;;16.45;10.20;;;;;;;-0.14;100.00;97023.63;10348961;28;20061;-63
2021/12/08 00:53:18;;;;;;;19.33;10.10;;;;;;;-0.16;100.00;97047.53;10347259;28;20042;-64
2021/12/08 00:58:21;;;;;;;16.77;9.57;;;;;;;-0.17;100.00;97061.75;10348287;28;20069;-63
2021/12/08 01:03:24;;;;;;;20.50;9.93;;;;;;;-0.17;100.00;97052.03;10347997;28;20057;-63
2021/12/08 01:08:30;;;;;;;18.23;10.10;;;;;;;-0.18;100.00;97055.63;10348011;28;20050;-64
2021/12/08 01:13:33;;;;;;;18.15;9.63;;;;;;;-0.19;100.00;97059.25;10348279;28;20112;-64
2021/12/08 01:18:37;;;;;;;17.38;8.80;;;;;;;-0.19;100.00;97053.13;10347626;28;20129;-64
2021/12/08 01:23:42;;;;;;;15.43;7.38;;;;;;;-0.14;100.00;97050.91;10344798;28;20052;-64
2021/12/08 01:28:45;;;;;;;15.80;7.30;;;;;;;-0.11;100.00;97055.97;10347835;28;20038;-64
2021/12/08 01:33:48;;;;;;;14.57;6.93;;;;;;;-0.13;100.00;97047.31;10347657;28;20056;-64
2021/12/08 01:38:53;;;;;;;19.08;7.38;;;;;;;-0.09;100.00;97027.56;10362202;28;20056;-63
2021/12/08 01:49:16;;;;;;;17.27;7.28;;;;;;;-0.05;100.00;97034.25;10347267;28;20046;-63
2021/12/08 01:54:21;;;;;;;12.20;6.60;;;;;;;0.01;100.00;97032.06;10346852;28;20046;-62
2021/12/08 01:59:24;;;;;;;16.27;7.05;;;;;;;0.05;100.00;97034.31;10365434;28;20165;-64
2021/12/08 02:04:27;;;;;;;14.25;5.88;;;;;;;0.06;100.00;97027.25;10345125;28;20099;-64
2021/12/08 02:09:31;;;;;;;12.05;6.35;;;;;;;0.04;100.00;97021.22;10345066;28;20052;-63
2021/12/08 02:14:35;;;;;;;12.45;5.97;;;;;;;0.00;100.00;97010.06;10352463;28;21436;-63
2021/12/08 02:19:39;;;;;;;10.65;5.70;;;;;;;-0.02;100.00;97006.69;10353898;28;20053;-64
2021/12/08 02:24:43;;;;;;;13.60;5.70;;;;;;;-0.08;100.00;96986.88;10353548;28;20414;-63
2021/12/08 02:29:52;;;;;;;11.15;5.30;;;;;;;-0.12;100.00;96979.34;10352125;28;20048;-64
2021/12/08 02:50:59;;;;;;;10.48;4.07;;;;;;;-0.17;100.00;96969.09;10356802;28;20125;-63
2021/12/08 02:56:04;;;;;;;7.82;4.00;;;;;;;-0.18;100.00;96967.47;10353511;28;20049;-62
2021/12/08 03:01:08;;;;;;;10.13;3.83;;;;;;;-0.19;100.00;96961.31;10349228;28;20079;-63
2021/12/08 03:06:12;;;;;;;9.90;3.60;;;;;;;-0.14;100.00;96963.56;10350172;28;20395;-64
2021/12/08 03:11:17;;;;;;;6.18;3.00;;;;;;;-0.09;100.00;96969.31;10350692;28;20116;-64
2021/12/08 03:16:20;;;;;;;9.45;3.38;;;;;;;-0.01;100.00;96950.97;10351527;28;20044;-64
2021/12/08 03:21:29;;;;;;;7.32;3.00;;;;;;;0.07;100.00;96954.75;10351392;28;20054;-63
2021/12/08 03:26:35;;;;;;;8.38;3.30;;;;;;;0.14;100.00;96942.69;10350910;28;20045;-62
2021/12/08 03:31:42;;;;;;;6.25;3.28;;;;;;;0.19;100.00;96929.88;10351826;28;20098;-61
2021/12/08 03:36:45;;;;;;;7.47;3.00;;;;;;;0.25;100.00;96939.09;10350273;28;20109;-63
2021/12/08 03:41:50;;;;;;;9.52;3.53;;;;;;;0.29;100.00;96938.69;10351017;28;20418;-62
2021/12/08 03:46:59;;;;;;;10.98;3.33;;;;;;;0.33;100.00;96941.94;10349921;28;21333;-63
2021/12/08 03:52:04;;;;;;;5.43;2.90;;;;;;;0.33;100.00;96935.78;10349551;28;20561;-63
2021/12/08 03:57:09;;;;;;;8.70;3.30;;;;;;;0.34;100.00;96950.69;10350342;28;20042;-63
2021/12/08 04:02:12;;;;;;;11.55;3.38;;;;;;;0.36;100.00;96951.41;10365651;28;20065;-63
2021/12/08 04:07:17;;;;;;;5.97;3.13;;;;;;;0.42;100.00;96961.47;10369261;28;20216;-63
2021/12/08 04:12:22;;;;;;;8.65;3.30;;;;;;;0.49;100.00;96975.88;10349916;28;20053;-64
2021/12/08 04:17:33;;;;;;;6.97;3.00;;;;;;;0.53;100.00;96976.44;10348402;28;20049;-69
2021/12/08 04:22:39;;;;;;;10.10;3.57;;;;;;;0.56;100.00;96969.03;10350249;28;20144;-64
2021/12/08 04:27:45;;;;;;;10.32;3.67;;;;;;;0.61;100.00;96963.34;10348817;28;20537;-63
2021/12/08 04:32:49;;;;;;;8.23;3.40;;;;;;;0.66;100.00;96984.13;10370547;28;20065;-63
2021/12/08 04:37:55;;;;;;;8.75;3.83;;;;;;;0.64;100.00;96975.50;10346562;28;20038;-64
2021/12/08 04:43:10;;;;;;;9.20;3.60;;;;;;;0.61;100.00;96980.09;10348573;28;20044;-64
2021/12/08 04:48:27;;;;;;;7.43;3.22;;;;;;;0.67;100.00;96976.06;10348934;28;21318;-64
2021/12/08 04:53:43;;;;;;;8.43;3.67;;;;;;;0.69;100.00;96978.56;10347986;28;20049;-64
2021/12/08 05:04:37;;;;;;;8.35;3.60;;;;;;;0.66;100.00;96974.38;10348860;28;20125;-65
2021/12/08 05:09:41;;;;;;;8.02;3.70;;;;;;;0.69;100.00;96960.03;10345309;28;20438;-64
2021/12/08 05:14:50;;;;;;;6.90;3.72;;;;;;;0.69;100.00;96954.72;10348017;28;20038;-66
2021/12/08 05:19:56;;;;;;;8.23;3.78;;;;;;;0.70;100.00;96943.16;10346997;28;20045;-65
2021/12/08 05:25:06;;;;;;;7.28;3.30;;;;;;;0.70;100.00;96937.84;10350043;28;20092;-69
2021/12/08 05:30:13;;;;;;;6.00;3.10;;;;;;;0.73;100.00;96937.56;10348841;28;20041;-68
2021/12/08 05:35:19;;;;;;;6.88;3.28;;;;;;;0.72;100.00;96930.59;10350492;28;20090;-65
2021/12/08 05:40:26;;;;;;;6.68;3.22;;;;;;;0.76;100.00;96937.31;10363274;28;20081;-70
2021/12/08 05:45:31;;;;;;;5.60;2.65;;;;;;;0.77;100.00;96942.47;10350612;28;20056;-65
2021/12/08 05:50:39;;;;;;;5.13;2.63;;;;;;;0.81;100.00;96945.69;10356089;28;20127;-65
2021/12/08 05:55:45;;;;;;;8.27;3.10;;;;;;;0.83;100.00;96962.28;10358343;28;20533;-64
2021/12/08 06:00:53;;;;;;;6.20;2.90;;;;;;;0.88;100.00;96970.66;10357477;28;20062;-65
2021/12/08 06:05:56;;;;;;;5.30;2.50;;;;;;;0.93;100.00;96967.63;10372952;28;20068;-64
2021/12/08 06:11:02;;;;;;;5.40;2.50;;;;;;;0.97;100.00;96976.13;10389476;28;20434;-63
2021/12/08 06:16:07;;;;;;;6.35;2.60;;;;;;;0.97;100.00;96965.53;10381283;28;20049;-64
2021/12/08 06:21:15;;;;;;;5.78;2.47;;;;;;;0.96;100.00;96969.16;10364219;28;20053;-64
2021/12/08 06:26:23;;;;;;;5.80;2.20;;;;;;;0.99;100.00;96974.19;10359696;28;20046;-64
2021/12/08 06:31:30;;;;;;;5.32;2.10;;;;;;;0.98;100.00;96978.66;10352369;28;20675;-64
2021/12/08 06:36:38;;;;;;;7.95;2.17;;;;;;;0.98;100.00;96977.81;10354804;28;20038;-64
2021/12/08 06:41:44;;;;;;;4.85;2.20;;;;;;;1.02;100.00;96965.94;10353319;28;20085;-64
2021/12/08 06:46:49;;;;;;;5.28;2.28;;;;;;;1.02;100.00;96973.91;10351630;28;20038;-65
2021/12/08 06:51:56;;;;;;;3.88;2.10;;;;;;;1.03;100.00;96959.66;10351425;28;20064;-65
2021/12/08 06:57:02;;;;;;;5.90;2.25;;;;;;;1.03;100.00;96970.28;10367388;28;20045;-63
2021/12/08 07:02:21;;;;;;;5.20;2.17;;;;;;;0.99;100.00;96964.41;10351124;28;20087;-65
2021/12/08 07:07:29;;;;;;;5.35;2.60;;;;;;;0.99;100.00;96953.81;10350630;28;20069;-62
2021/12/08 07:12:37;;;;;;;6.65;2.38;;;;;;;0.97;100.00;96944.31;10351931;28;20046;-63
2021/12/08 07:17:45;;;;;;;9.55;2.70;;;;;;;0.97;100.00;96950.44;10350364;28;20046;-62
2021/12/08 07:22:52;;;;;;;4.93;2.65;;;;;;;0.97;100.00;96944.31;10352235;28;20221;-64
2021/12/08 07:27:56;;;;;;;6.13;2.65;;;;;;;0.97;100.00;96939.84;10351930;28;20069;-62
2021/12/08 07:33:01;;;;;;;8.30;3.10;;;;;;;0.97;100.00;96939.03;10351948;28;20115;-64
2021/12/08 07:38:07;;;;;;;5.32;2.90;;;;;;;0.99;100.00;96934.41;10351517;28;20052;-63
2021/12/08 07:43:18;;;;;;;6.07;3.42;;;;;;;0.99;100.00;96926.47;10351615;28;20046;-65
2021/12/08 07:48:29;;;;;;;6.70;2.97;;;;;;;0.99;100.00;96916.69;10349327;28;20783;-65
2021/12/08 07:53:33;;;;;;;6.82;2.88;;;;;;;1.03;100.00;96915.44;10348650;28;20057;-63
2021/12/08 07:58:39;;;;;;;5.60;2.90;;;;;;;1.08;100.00;96915.03;10350266;28;20054;-64
2021/12/08 08:03:44;;;;;;;5.40;3.03;;;;;;;1.10;100.00;96928.13;10350179;28;20049;-64
2021/12/08 08:08:48;;;;;;;6.70;3.30;;;;;;;1.13;100.00;96934.00;10349441;28;20081;-63
2021/12/08 08:13:52;;;;;;;5.97;3.03;;;;;;;1.14;100.00;96927.72;10349581;28;20168;-61
2021/12/08 08:19:05;;;;;;;6.07;3.40;;;;;;;1.17;100.00;96924.78;10349688;28;20050;-63
2021/12/08 08:24:10;;;;;;;6.75;3.20;;;;;;;1.17;100.00;96923.97;10347025;28;20526;-63
2021/12/08 08:29:13;;;;;;;5.72;2.88;;;;;;;1.20;100.00;96923.66;10349637;28;20075;-64
2021/12/08 08:34:17;;;;;;;5.97;3.00;;;;;;;1.23;100.00;96934.00;10349614;28;20053;-64
2021/12/08 08:39:24;;;;;;;6.72;2.83;;;;;;;1.26;100.00;96932.88;10350610;28;20078;-64
2021/12/08 08:44:31;;;;;;;5.25;3.10;;;;;;;1.28;100.00;96929.13;10349008;28;20069;-63
2021/12/08 08:49:37;;;;;;;8.98;3.40;;;;;;;1.31;100.00;96926.19;10347926;28;20054;-63
2021/12/08 08:54:45;;;;;;;7.22;3.05;;;;;;;1.32;100.00;96914.59;10346240;28;20422;-63
2021/12/08 08:59:52;;;;;;;9.18;3.50;;;;;;;1.32;100.00;96900.50;10349676;28;20108;-61
2021/12/08 09:05:03;;;;;;;7.25;3.28;;;;;;;1.32;100.00;96900.50;10348720;28;20046;-59
2021/12/08 09:10:11;;;;;;;5.97;3.00;;;;;;;1.34;100.00;96903.84;10348817;28;20168;-60
2021/12/08 09:15:19;;;;;;;;;;;;;;;1.32;100.00;96908.47;10350017;28;20054;-56
2021/12/08 09:20:33;;;;;;;7.95;3.22;;;;;;;1.39;100.00;96922.81;10347431;28;20397;-62
2021/12/08 09:25:40;;;;;;;5.80;3.10;;;;;;;1.41;100.00;96925.34;10346950;28;20097;-62
2021/12/08 09:30:46;;;;;;;8.45;3.80;;;;;;;1.41;100.00;96920.06;10346208;28;21691;-59
2021/12/08 09:35:54;;;;;;;9.52;3.90;;;;;;;1.44;100.00;96914.44;10348657;28;20049;-63
2021/12/08 09:41:05;;;;;;;7.40;3.30;;;;;;;1.45;100.00;96906.34;10348376;28;20522;-62
2021/12/08 09:46:12;;;;;;;5.93;3.17;;;;;;;1.45;100.00;96901.06;10348973;28;20777;-61
2021/12/08 09:51:20;;;;;;;9.95;3.60;;;;;;;1.49;100.00;96896.28;10346390;28;21008;-61
2021/12/08 09:56:25;;;;;;;8.05;3.35;;;;;;;1.50;100.00;96908.59;10345456;28;20053;-61
2021/12/08 10:01:28;;;;;;;7.68;3.63;;;;;;;1.52;100.00;96912.75;10345106;28;20373;-61
2021/12/08 10:06:34;;;;;;;9.13;3.47;;;;;;;1.54;100.00;96916.13;10347649;28;20087;-63
2021/12/08 10:11:38;;;;;;;8.43;3.83;;;;;;;1.61;100.00;96931.47;10345529;28;20050;-59
2021/12/08 10:16:42;;;;;;;8.75;4.35;;;;;;;1.63;100.00;96927.72;10347869;28;20065;-60
2021/12/08 10:21:48;;;;;;;8.48;4.05;;;;;;;1.62;100.00;96901.28;10347920;28;20058;-60
2021/12/08 10:26:54;;;;;;;5.22;3.25;;;;;;;1.69;100.00;96889.13;10348634;28;20046;-61
2021/12/08 10:38:03;;;;;;;6.30;3.20;;;;;;;1.82;100.00;96873.69;10353386;28;20065;-63
2021/12/08 10:43:14;;;;;;;5.72;3.50;;;;;;;1.86;100.00;96866.31;10353314;28;20505;-62
2021/12/08 10:48:31;;;;;;;6.97;3.92;;;;;;;1.90;100.00;96857.06;10353203;28;20593;-64
2021/12/08 10:59:12;;;;;;;7.72;4.18;;;;;;;1.90;100.00;96845.59;10300531;28;20184;-63
2021/12/08 11:04:16;;;;;;;7.30;4.05;;;;;;;1.85;100.00;96828.28;10351556;28;20494;-64
2021/12/08 11:09:20;;;;;;;8.07;4.43;;;;;;;1.85;100.00;96832.78;10354446;28;20052;-67
2021/12/08 11:14:25;;;;;;;8.13;4.13;;;;;;;1.82;100.00;96855.13;10352912;28;20137;-65
2021/12/08 11:19:28;;;;;;;7.93;3.97;;;;;;;1.84;100.00;96874.41;10355636;28;20509;-64
2021/12/08 11:24:45;;;;;;;6.72;3.92;;;;;;;1.84;100.00;96873.56;10354563;28;20121;-60
2021/12/08 11:29:49;;;;;;;7.72;4.00;;;;;;;1.90;100.00;96861.53;10354292;28;20076;-62
2021/12/08 11:34:55;;;;;;;8.35;4.00;;;;;;;1.98;100.00;96858.97;10349075;28;20054;-56
2021/12/08 11:40:01;;;;;;;7.85;3.80;;;;;;;2.04;100.00;96852.25;10353545;28;20089;-57
2021/12/08 11:45:13;;;;;;;6.97;4.20;;;;;;;2.10;100.00;96852.50;10351722;28;20064;-57
2021/12/08 11:50:19;;;;;;;8.82;4.30;;;;;;;2.19;100.00;96855.25;10353079;28;20238;-61
2021/12/08 11:55:25;;;;;;;9.27;4.28;;;;;;;2.27;100.00;96866.00;10353011;28;20045;-65
2021/12/08 12:00:32;;;;;;;6.68;3.83;;;;;;;2.32;100.00;96866.38;10352812;28;20065;-65
2021/12/08 12:05:37;;;;;;;9.73;4.03;;;;;;;2.37;100.00;96852.63;10353333;28;20089;-61
2021/12/08 12:10:45;;;;;;;6.07;4.00;;;;;;;2.36;100.00;96843.00;10349934;28;20497;-60
2021/12/08 12:15:50;;;;;;;17.45;6.65;;;;;;;2.40;100.00;96839.91;10351801;28;20050;-65
2021/12/08 12:21:00;;;;;;;13.85;6.00;;;;;;;2.38;100.00;96828.59;10349980;28;20263;-60
2021/12/08 12:26:14;;;;;;;8.20;4.00;;;;;;;2.40;100.00;96837.25;10350587;28;20505;-59
2021/12/08 12:31:23;;;;;;;8.88;4.10;;;;;;;2.44;100.00;96835.97;10349590;28;20056;-55
2021/12/08 12:36:28;;;;;;;6.68;3.33;;;;;;;2.51;100.00;96848.66;10352315;28;20041;-60
2021/12/08 12:41:33;;;;;;;12.57;3.90;;;;;;;2.53;100.00;96852.00;10346253;28;20139;-66
2021/12/08 12:46:36;;;;;;;8.52;4.25;;;;;;;2.52;100.00;96845.03;10353231;28;20073;-66
2021/12/08 12:51:57;;;;;;;7.38;3.72;;;;;;;2.49;100.00;96850.63;10348834;28;20236;-64
2021/12/08 12:57:06;;;;;;;9.60;4.27;;;;;;;2.49;100.00;96856.78;10348088;28;20137;-63
2021/12/08 13:02:12;;;;;;;8.98;4.63;;;;;;;2.51;100.00;96853.97;10351285;28;20062;-63
2021/12/08 13:07:15;;;;;;;7.22;4.00;;;;;;;2.45;100.00;96845.59;10349292;28;20045;-65
2021/12/08 13:12:23;;;;;;;7.15;3.58;;;;;;;2.47;100.00;96843.66;10347139;28;20133;-61
2021/12/08 13:17:27;;;;;;;8.77;3.90;;;;;;;2.49;100.00;96840.00;10348074;28;20380;-59
2021/12/08 13:22:53;;;;;;;7.93;3.88;;;;;;;2.58;100.00;96841.75;10349561;28;20054;-58
2021/12/08 13:28:12;;;;;;;9.55;6.68;;;;;;;2.65;100.00;96848.13;10347853;28;20041;-65
2021/12/08 13:33:29;;;;;;;8.43;5.05;;;;;;;2.71;100.00;96844.88;10348538;28;20048;-65
2021/12/08 13:38:42;;;;;;;8.57;4.90;;;;;;;2.75;100.00;96846.28;10346628;28;20052;-64
2021/12/08 13:43:49;;;;;;;9.75;5.40;;;;;;;2.76;100.00;96847.91;10347788;28;20165;-63
2021/12/08 13:49:14;;;;;;;11.73;6.10;;;;;;;2.73;100.00;96858.88;10351820;28;20050;-66
2021/12/08 13:54:29;;;;;;;9.35;5.57;;;;;;;2.72;100.00;96859.84;10348435;28;20077;-62
2021/12/08 13:59:54;;;;;;;12.52;5.55;;;;;;;2.70;100.00;96853.84;10383228;28;20122;-62
2021/12/08 14:05:03;;;;;;;9.68;4.95;;;;;;;2.67;100.00;96845.34;10380793;28;20355;-63
2021/12/08 14:10:14;;;;;;;9.75;5.63;;;;;;;2.60;100.00;96837.13;10367819;28;20056;-62
2021/12/08 14:15:22;;;;;;;8.10;5.22;;;;;;;2.58;100.00;96844.41;10355822;28;20056;-63
2021/12/08 14:20:28;;;;;;;9.32;5.78;;;;;;;2.52;100.00;96853.00;10354164;28;20057;-64
2021/12/08 14:25:35;;;;;;;9.70;5.70;;;;;;;2.47;100.00;96850.75;10356162;28;20128;-60
2021/12/08 14:30:46;;;;;;;11.30;5.47;;;;;;;2.41;100.00;96857.50;10359477;28;20065;-62
2021/12/08 14:35:54;;;;;;;10.43;5.50;;;;;;;2.37;100.00;96866.78;10354408;28;20048;-64
2021/12/08 14:40:58;;;;;;;12.40;6.03;;;;;;;2.33;100.00;96846.78;10354744;28;20045;-67
2021/12/08 14:46:12;;;;;;;12.70;6.45;;;;;;;2.25;100.00;96850.19;10357555;28;20089;-63
2021/12/08 14:51:23;;;;;;;11.80;6.78;;;;;;;2.19;100.00;96845.47;10351940;28;20054;-64
2021/12/08 14:56:26;;;;;;;10.20;7.05;;;;;;;2.18;100.00;96837.63;10354592;28;20060;-66
2021/12/08 15:01:30;;;;;;;11.60;6.68;;;;;;;2.10;100.00;96830.44;10353610;28;20063;-65
2021/12/08 15:06:34;;;;;;;15.02;7.18;;;;;;;2.00;100.00;96804.72;10354833;28;20053;-65
2021/12/08 15:11:40;;;;;;;16.77;8.45;;;;;;;1.92;100.00;96790.53;10353044;28;20046;-61
2021/12/08 15:16:48;;;;;;;17.63;9.05;;;;;;;1.72;100.00;96772.03;10354092;28;20459;-61
2021/12/08 15:21:54;;;;;;;16.75;8.85;;;;;;;1.66;100.00;96796.50;10350468;28;20050;-64
2021/12/08 15:27:11;;;;;;;18.20;9.48;;;;;;;1.64;100.00;96809.09;10352306;28;20046;-63
2021/12/08 15:32:17;;;;;;;17.98;9.40;;;;;;;1.59;100.00;96844.03;10352522;28;20574;-63
2021/12/08 15:37:20;;;;;;;15.07;9.38;;;;;;;1.57;100.00;96839.84;10352627;28;20080;-64
2021/12/08 15:42:24;;;;;;;20.60;10.68;;;;;;;1.57;100.00;96850.47;10352327;28;20066;-61
2021/12/08 15:47:29;;;;;;;22.25;10.63;;;;;;;1.56;100.00;96840.81;10350071;28;20122;-63
2021/12/08 15:52:37;;;;;;;16.98;10.85;;;;;;;1.57;100.00;96850.47;10348544;28;20080;-64
2021/12/08 15:57:40;;;;;;;16.65;11.30;;;;;;;1.55;100.00;96839.97;10349800;28;20056;-64
2021/12/08 16:02:44;;;;;;;20.75;11.93;;;;;;;1.54;100.00;96841.81;10351128;28;20050;-62
2021/12/08 16:07:49;;;;;;;21.38;11.88;;;;;;;1.56;100.00;96856.75;10349297;28;20196;-63
2021/12/08 16:12:57;;;;;;;17.55;11.00;;;;;;;1.55;100.00;96863.84;10349935;28;20113;-64
2021/12/08 16:18:02;;;;;;;16.55;9.75;;;;;;;1.56;100.00;96860.22;10348702;28;20529;-65
2021/12/08 16:23:06;;;;;;;17.67;11.30;;;;;;;1.54;100.00;96851.56;10350350;28;20110;-63
2021/12/08 16:28:11;;;;;;;17.17;11.15;;;;;;;1.52;100.00;96849.06;10350037;28;20038;-65
2021/12/08 16:33:16;;;;;;;16.30;10.80;;;;;;;1.48;100.00;96863.59;10353639;28;20114;-68
2021/12/08 16:38:19;;;;;;;17.92;11.45;;;;;;;1.50;100.00;96866.94;10354419;28;20423;-66
2021/12/08 16:43:22;;;;;;;23.02;11.30;;;;;;;1.50;100.00;96869.59;10351500;28;20060;-67
2021/12/08 16:48:29;;;;;;;20.95;11.82;;;;;;;1.49;100.00;96881.19;10348855;28;20045;-64
2021/12/08 16:53:32;;;;;;;18.73;10.82;;;;;;;1.48;100.00;96876.84;10351272;28;20069;-65
2021/12/08 16:58:39;;;;;;;17.98;11.38;;;;;;;1.47;100.00;96875.19;10347587;28;20137;-65
2021/12/08 17:03:47;;;;;;;20.33;12.20;;;;;;;1.46;100.00;96862.91;10347388;28;20054;-63
2021/12/08 17:08:51;;;;;;;19.98;13.05;;;;;;;1.46;100.00;96856.75;10350983;28;20046;-65
2021/12/08 17:13:55;;;;;;;20.02;12.13;;;;;;;1.65;100.00;96847.91;10348516;28;20054;-59
2021/12/08 17:18:59;;;;;;;19.27;12.00;;;;;;;1.67;100.00;96849.44;10348399;28;20050;-60
2021/12/08 17:24:03;;;;;;;20.02;11.70;;;;;;;1.64;100.00;96859.50;10348794;28;20507;-63
2021/12/08 17:29:09;;;;;;;19.88;11.82;;;;;;;1.61;100.00;96854.47;10346051;28;20046;-61
2021/12/08 17:34:13;;;;;;;17.50;12.55;;;;;;;1.59;100.00;96870.56;10347760;28;20046;-59
2021/12/08 17:39:16;;;;;;;16.65;12.18;;;;;;;1.58;100.00;96874.19;10352087;28;20050;-63
2021/12/08 17:44:21;;;;;;;17.75;11.75;;;;;;;1.54;100.00;96884.28;10356430;28;20271;-64
2021/12/08 17:49:26;;;;;;;23.95;13.73;;;;;;;1.52;100.00;96902.16;10361549;28;20060;-65
2021/12/08 17:54:29;;;;;;;21.02;13.23;;;;;;;1.47;100.00;96903.56;10357070;28;20045;-63
2021/12/08 17:59:37;;;;;;;20.38;13.75;;;;;;;1.35;100.00;96884.31;10356298;28;20133;-63
2021/12/08 18:04:42;;;;;;;22.20;15.27;;;;;;;1.19;100.00;96874.25;10355530;28;20041;-63
2021/12/08 18:09:45;;;;;;;27.17;15.40;;;;;;;1.13;100.00;96894.22;10356904;28;20045;-63
2021/12/08 18:14:49;;;;;;;21.15;15.52;;;;;;;1.10;100.00;96914.88;10356405;28;20041;-62
2021/12/08 18:19:53;;;;;;;25.27;17.65;;;;;;;1.03;100.00;96938.44;10355134;28;20418;-62
2021/12/08 18:24:57;;;;;;;25.52;18.27;;;;;;;1.03;100.00;96938.44;10352054;28;20227;-61
2021/12/08 18:30:00;;;;;;;29.77;18.05;;;;;;;0.97;100.00;96936.38;10352527;28;20466;-61
2021/12/08 18:35:15;;;;;;;26.60;19.25;;;;;;;0.93;100.00;96933.16;10354054;28;20042;-62
2021/12/08 18:40:18;;;;;;;27.25;18.10;;;;;;;0.92;100.00;96929.66;10353463;28;20125;-61
2021/12/08 18:45:22;;;;;;;28.00;19.35;;;;;;;0.87;100.00;96918.63;10352335;28;20058;-63
2021/12/08 18:50:26;;;;;;;29.48;18.40;;;;;;;0.87;100.00;96921.28;10353775;28;20042;-65
2021/12/08 18:55:36;;;;;;;30.27;19.80;;;;;;;0.86;100.00;96916.97;10351448;28;20068;-63
2021/12/08 19:00:40;;;;;;;29.85;19.05;;;;;;;0.86;100.00;96911.66;10353568;28;20430;-62
2021/12/08 19:05:45;;;;;;;26.27;18.73;;;;;;;0.86;100.00;96946.13;10350134;28;20050;-63
2021/12/08 19:10:51;;;;;;;28.73;18.83;;;;;;;0.84;100.00;96948.06;10351927;28;20128;-65
2021/12/08 19:15:58;;;;;;;24.88;16.92;;;;;;;0.88;100.00;96941.50;10352160;28;20057;-67
2021/12/08 19:21:05;;;;;;;26.42;17.67;;;;;;;0.88;100.00;96941.50;10350369;28;20490;-65
2021/12/08 19:26:09;;;;;;;27.38;17.17;;;;;;;0.88;100.00;96946.78;10351979;28;20129;-63
2021/12/08 19:31:12;;;;;;;28.20;18.52;;;;;;;0.90;100.00;96954.63;10350994;28;20042;-62
2021/12/08 19:36:17;;;;;;;26.80;17.95;;;;;;;0.90;100.00;96954.63;10351942;28;20064;-63
2021/12/08 19:41:21;;;;;;;28.45;18.38;;;;;;;0.89;100.00;96956.44;10349593;28;20044;-65
2021/12/08 19:46:24;;;;;;;29.13;18.92;;;;;;;0.89;100.00;96945.81;10352505;28;20088;-66
2021/12/08 19:51:30;;;;;;;28.33;19.60;;;;;;;0.90;100.00;96928.94;10351913;28;20045;-66
2021/12/08 19:56:34;;;;;;;29.52;20.50;;;;;;;0.89;100.00;96924.63;10353221;28;20050;-68
2021/12/08 20:01:38;;;;;;;29.90;19.45;;;;;;;0.91;100.00;96925.31;10350961;28;20165;-63
2021/12/08 20:06:43;;;;;;;29.05;18.92;;;;;;;0.90;100.00;96939.56;10351782;28;20168;-63
2021/12/08 20:11:48;;;;;;;31.92;20.05;;;;;;;0.90;100.00;96938.72;10347346;28;20084;-65
2021/12/08 20:16:51;;;;;;;26.88;19.15;;;;;;;0.88;100.00;96938.03;10350936;28;20050;-63
2021/12/08 20:21:56;;;;;;;26.55;17.70;;;;;;;0.89;100.00;96942.34;10348769;28;20050;-63
2021/12/08 20:27:01;;;;;;;28.92;19.20;;;;;;;0.88;100.00;96951.28;10350937;28;20052;-62
2021/12/08 20:32:06;;;;;;;27.15;17.50;;;;;;;0.85;100.00;96955.03;10349251;28;20124;-64
2021/12/08 20:37:10;;;;;;;26.80;18.15;;;;;;;0.85;100.00;96952.41;10348208;28;20133;-66
2021/12/08 20:42:13;;;;;;;28.75;18.92;;;;;;;0.81;100.00;96943.03;10347405;28;20042;-63
2021/12/08 20:47:18;;;;;;;28.75;19.63;;;;;;;0.79;100.00;96930.91;10349578;28;20054;-63
2021/12/08 20:52:26;;;;;;;36.60;22.38;;;;;;;0.74;100.00;96910.09;10349948;28;20437;-61
2021/12/08 20:57:29;;;;;;;37.97;22.48;;;;;;;0.73;100.00;96908.41;10348613;28;20758;-61
2021/12/08 21:02:35;;;;;;;33.45;22.48;;;;;;;0.73;100.00;96942.88;10349027;28;20124;-63
2021/12/08 21:07:44;;;;;;;33.22;21.73;;;;;;;0.74;100.00;96965.75;10348096;28;20339;-64
2021/12/08 21:12:47;;;;;;;32.67;22.02;;;;;;;0.76;100.00;96974.44;10348131;28;20056;-64
2021/12/08 21:17:53;;;;;;;32.05;21.95;;;;;;;0.77;100.00;96963.69;10346680;28;20263;-64
2021/12/08 21:23:00;;;;;;;35.88;22.95;;;;;;;0.76;100.00;96954.03;10348333;28;20491;-65
2021/12/08 21:28:05;;;;;;;57.95;37.05;;;;;;;0.76;100.00;96955.88;10349305;28;20046;-65
2021/12/08 21:33:12;;;;;;;50.13;32.63;;;;;;;0.79;100.00;96963.53;10348559;28;20045;-64
2021/12/08 21:38:23;;;;;;;40.42;25.42;;;;;;;0.80;100.00;96959.09;10348788;28;20056;-63
2021/12/08 21:43:28;;;;;;;36.35;22.80;;;;;;;0.80;100.00;96964.38;10352397;28;20045;-63
2021/12/08 21:48:33;;;;;;;37.85;24.52;;;;;;;0.82;100.00;96957.13;10345783;28;20422;-63
2021/12/08 21:53:40;;;;;;;34.58;22.15;;;;;;;0.84;100.00;96955.16;10348990;28;20114;-62
2021/12/08 21:58:43;;;;;;;32.70;22.73;;;;;;;0.84;100.00;96958.66;10342397;28;20515;-62
2021/12/08 22:03:47;;;;;;;33.80;22.20;;;;;;;0.85;100.00;96965.66;10350038;28;20057;-62
2021/12/08 22:08:52;;;;;;;36.03;23.02;;;;;;;0.87;100.00;96958.41;10356951;28;20048;-62
2021/12/08 22:13:56;;;;;;;40.03;24.25;;;;;;;0.76;100.00;96939.97;10392450;28;20042;-59
2021/12/08 22:18:59;;;;;;;46.72;26.23;;;;;;;0.69;100.00;96923.75;10377586;28;20076;-64
2021/12/08 22:24:04;;;;;;;51.03;28.50;;;;;;;0.62;100.00;96922.63;10352704;28;20077;-63
2021/12/08 22:29:10;;;;;;;47.67;28.08;;;;;;;0.65;100.00;96924.19;10353104;28;20056;-64
2021/12/08 22:34:15;;;;;;;41.97;25.27;;;;;;;0.64;100.00;96933.94;10354468;28;20046;-64
2021/12/08 22:39:19;;;;;;;41.40;25.70;;;;;;;0.67;100.00;96938.09;10354132;28;20153;-63
2021/12/08 22:44:24;;;;;;;42.83;25.45;;;;;;;0.69;100.00;96944.13;10353886;28;20946;-63
2021/12/08 22:49:27;;;;;;;43.60;26.38;;;;;;;0.70;100.00;96945.78;10353504;28;20042;-64
2021/12/08 22:54:33;;;;;;;41.10;24.55;;;;;;;0.72;100.00;96957.09;10366036;28;20056;-64
2021/12/08 22:59:36;;;;;;;44.33;26.95;;;;;;;0.72;100.00;96947.31;10352753;28;20552;-64
2021/12/08 23:04:43;;;;;;;43.35;26.65;;;;;;;0.75;100.00;96948.88;10422548;22;20144;-85
2021/12/08 23:09:47;;;;;;;43.55;26.30;;;;;;;0.73;100.00;96942.88;10434895;28;20068;-86
2021/12/08 23:14:50;;;;;;;50.33;28.45;;;;;;;0.70;100.00;96936.06;10417263;28;20030;-84
2021/12/08 23:19:54;;;;;;;48.15;28.67;;;;;;;0.68;100.00;96919.44;10413340;28;20943;-85
2021/12/08 23:24:59;;;;;;;53.97;29.45;;;;;;;0.65;100.00;96927.66;10415702;28;20051;-85
2021/12/08 23:30:03;;;;;;;49.55;28.65;;;;;;;0.68;100.00;96929.19;10412048;28;20039;-87
2021/12/08 23:35:23;;;;;;;46.22;26.80;;;;;;;0.66;100.00;96942.59;10412608;28;20049;-86
2021/12/08 23:40:28;;;;;;;42.88;25.63;;;;;;;0.68;100.00;96953.03;10410178;28;20317;-86
2021/12/08 23:45:31;;;;;;;44.03;26.33;;;;;;;0.67;100.00;96959.31;10407933;28;20049;-87
2021/12/08 23:50:38;;;;;;;41.95;26.23;;;;;;;0.69;100.00;96958.22;10409037;28;20044;-87
2021/12/08 23:55:46;;;;;;;44.20;26.05;;;;;;;0.70;100.00;96959.03;10414354;28;20044;-86
